createdAt,value
2019-03-13T00:03:06.687Z,11005.7
2019-03-13T00:13:05.903Z,11005.9
2019-03-13T00:23:05.110Z,11005.9
2019-03-13T00:33:04.323Z,11006
2019-03-13T00:43:03.539Z,11006.1
2019-03-13T00:53:02.830Z,11006.2
2019-03-13T01:03:01.956Z,11006.3
2019-03-13T01:13:01.168Z,11006.4
2019-03-13T01:23:00.378Z,11006.5
2019-03-13T01:32:59.588Z,11006.6
2019-03-13T01:42:58.806Z,11006.7
2019-03-13T01:52:58.008Z,11006.8
2019-03-13T02:02:57.219Z,11006.9
2019-03-13T02:12:56.428Z,11007.1
2019-03-13T02:22:55.641Z,11007.2
2019-03-13T02:32:54.850Z,11007.2
2019-03-13T02:42:54.061Z,11007.3
2019-03-13T02:52:53.273Z,11007.4
2019-03-13T03:02:52.535Z,11007.5
2019-03-13T03:12:51.691Z,11007.6
2019-03-13T03:22:50.961Z,11007.7
2019-03-13T03:32:50.137Z,11007.8
2019-03-13T03:42:49.354Z,11007.9
2019-03-13T03:52:48.596Z,11007.9
2019-03-13T04:02:47.746Z,11008
2019-03-13T04:12:47.009Z,11008.1
2019-03-13T04:22:46.175Z,11008.2
2019-03-13T04:32:45.378Z,11008.3
2019-03-13T04:42:44.591Z,11008.5
2019-03-13T04:52:43.801Z,11008.5
2019-03-13T05:02:43.013Z,11008.6
2019-03-13T05:12:42.224Z,11008.7
2019-03-13T05:22:41.439Z,11008.8
2019-03-13T05:32:40.649Z,11008.9
2019-03-13T05:42:39.861Z,11009
2019-03-13T05:52:39.072Z,11009.1
2019-03-13T06:02:38.334Z,11009.3
2019-03-13T06:12:37.496Z,11009.4
2019-03-13T06:22:36.705Z,11009.4
2019-03-13T06:32:35.916Z,11009.5
2019-03-13T06:42:35.126Z,11009.6
2019-03-13T06:52:34.336Z,11009.7
2019-03-13T07:02:33.546Z,11009.8
2019-03-13T07:12:32.764Z,11009.9
2019-03-13T07:22:31.966Z,11009.9
2019-03-13T07:32:31.182Z,11010
2019-03-13T07:42:30.391Z,11010.1
2019-03-13T07:52:32.531Z,11010.1
2019-03-13T08:02:28.817Z,11010.2
2019-03-13T08:12:28.021Z,11010.2
2019-03-13T08:22:27.234Z,11010.3
2019-03-13T08:32:26.444Z,11010.4
2019-03-13T08:42:25.652Z,11010.4
2019-03-13T08:52:24.867Z,11010.5
2019-03-13T09:02:24.074Z,11010.6
2019-03-13T09:12:23.286Z,11010.7
2019-03-13T09:22:22.600Z,11010.8
2019-03-13T09:32:21.712Z,11010.9
2019-03-13T09:42:20.919Z,11010.9
2019-03-13T09:52:20.127Z,11011
2019-03-13T10:02:19.336Z,11011
2019-03-13T10:12:18.546Z,11011.1
2019-03-13T10:22:17.757Z,11011.2
2019-03-13T10:32:16.981Z,11011.2
2019-03-13T10:42:16.177Z,11011.3
2019-03-13T10:52:15.385Z,11011.3
2019-03-13T11:02:14.597Z,11011.4
2019-03-13T11:12:13.807Z,11011.5
2019-03-13T11:22:13.018Z,11011.6
2019-03-13T11:32:12.237Z,11011.6
2019-03-13T11:42:11.446Z,11011.7
2019-03-13T11:52:10.658Z,11011.8
2019-03-13T12:02:09.868Z,11011.9
2019-03-13T12:12:09.080Z,11011.9
2019-03-13T12:22:08.296Z,11012
2019-03-13T12:32:07.501Z,11012.1
2019-03-13T12:42:06.715Z,11012.1
2019-03-13T12:52:05.923Z,11012.2
2019-03-13T13:02:05.138Z,11012.3
2019-03-13T13:12:04.345Z,11012.4
2019-03-13T13:22:03.555Z,11012.5
2019-03-13T13:32:02.769Z,11012.6
2019-03-13T13:42:01.980Z,11012.6
2019-03-13T13:52:01.661Z,11012.7
2019-03-13T14:02:00.874Z,11012.8
2019-03-13T14:12:00.084Z,11012.9
2019-03-13T14:21:59.294Z,11012.9
2019-03-13T14:31:58.504Z,11013
2019-03-13T14:41:57.715Z,11013.1
2019-03-13T14:51:56.925Z,11013.2
2019-03-13T15:01:56.136Z,11013.3
2019-03-13T15:11:55.363Z,11013.4
2019-03-13T15:21:54.563Z,11013.5
2019-03-13T15:31:53.769Z,11013.6
2019-03-13T15:41:52.977Z,11013.6
2019-03-13T15:51:52.189Z,11013.7
2019-03-13T16:01:51.450Z,11013.8
2019-03-13T16:11:50.611Z,11013.9
2019-03-13T16:21:49.821Z,11014
2019-03-13T16:31:49.032Z,11014.1
2019-03-13T16:41:48.245Z,11014.1
2019-03-13T16:51:47.456Z,11014.2
2019-03-13T17:01:46.670Z,11014.3
2019-03-13T17:11:45.885Z,11014.4
2019-03-13T17:21:45.102Z,11014.5
2019-03-13T17:31:44.304Z,11014.6
2019-03-13T17:41:43.544Z,11014.7
2019-03-13T17:51:42.728Z,11014.8
2019-03-13T17:59:09.489Z,11014.4
2019-03-13T18:09:08.700Z,11014.5
2019-03-13T18:19:07.915Z,11014.6
2019-03-13T18:29:07.125Z,11014.7
2019-03-13T18:39:06.345Z,11014.8
2019-03-13T18:49:05.554Z,11014.8
2019-03-13T18:59:04.828Z,11014.9
2019-03-13T19:09:04.133Z,11015
2019-03-13T19:19:03.428Z,11015.1
2019-03-13T19:29:02.735Z,11015.1
2019-03-13T19:39:02.071Z,11015.2
2019-03-13T19:49:01.339Z,11015.3
2019-03-13T19:59:00.545Z,11015.3
2019-03-13T20:08:59.763Z,11015.4
2019-03-13T20:18:58.985Z,11015.5
2019-03-13T20:28:58.190Z,11015.6
2019-03-13T20:38:57.405Z,11015.7
2019-03-13T20:48:56.661Z,11015.8
2019-03-13T20:58:55.832Z,11015.8
2019-03-13T21:08:55.048Z,11015.9
2019-03-13T21:18:54.261Z,11016
2019-03-13T21:28:53.474Z,11016.1
2019-03-13T21:38:52.686Z,11016.2
2019-03-13T21:48:51.900Z,11016.3
2019-03-13T21:58:51.114Z,11016.4
2019-03-13T22:08:50.325Z,11016.5
2019-03-13T22:18:49.537Z,11016.6
2019-03-13T22:28:48.752Z,11016.6
2019-03-13T22:38:47.965Z,11016.7
2019-03-13T22:48:57.555Z,11016.8
2019-03-13T22:58:46.392Z,11016.9
2019-03-13T23:08:45.596Z,11017
2019-03-13T23:18:44.810Z,11017.1
2019-03-13T23:28:44.017Z,11017.2
2019-03-13T23:38:43.229Z,11017.3
2019-03-13T23:48:42.440Z,11017.4
2019-03-13T23:58:41.650Z,11017.5
